Time;durP1;ratioP1;P1;durP2;ratioP2;P2;SDS_P1;SDS_P2;PMS_P1;PMS_P2;Temp;Humidity;BMP_temperature;BMP_pressure;BME280_temperature;BME280_humidity;BME280_pressure;Samples;Min_cycle;Max_cycle;Signal;HPM_P1;HPM_P2
2021/11/10 00:00:43;;;;;;;9.10;6.68;;;1.60;99.90;;;;;;5012756;28;20233;-68
2021/11/10 00:03:11;;;;;;;9.55;6.22;;;1.70;99.90;;;;;;5012553;28;20210;-68
2021/11/10 00:05:38;;;;;;;8.95;6.35;;;1.70;99.90;;;;;;5012648;28;20233;-68
2021/11/10 00:08:05;;;;;;;12.20;6.40;;;1.70;99.90;;;;;;5011964;28;20203;-68
2021/11/10 00:10:32;;;;;;;9.13;7.50;;;1.70;99.90;;;;;;5012570;28;20696;-68
2021/11/10 00:15:40;;;;;;;13.20;8.30;;;1.70;99.90;;;;;;5011650;28;20654;-68
2021/11/10 00:18:07;;;;;;;10.85;8.55;;;1.70;99.90;;;;;;5011907;28;20276;-68
2021/11/10 00:20:35;;;;;;;17.70;9.52;;;1.80;99.90;;;;;;5012449;28;20206;-68
2021/11/10 00:23:02;;;;;;;18.08;11.23;;;2.00;99.90;;;;;;5012108;28;20213;-68
2021/11/10 00:25:28;;;;;;;15.40;10.95;;;2.20;99.90;;;;;;5012310;28;20202;-68
2021/11/10 00:27:55;;;;;;;16.20;10.32;;;2.40;99.90;;;;;;5011513;28;20219;-68
2021/11/10 00:30:22;;;;;;;16.80;10.18;;;2.60;99.90;;;;;;5012354;28;20217;-68
2021/11/10 00:32:48;;;;;;;14.70;11.65;;;2.80;99.90;;;;;;5011999;28;20202;-68
2021/11/10 00:35:15;;;;;;;13.25;9.70;;;2.90;99.90;;;;;;5012009;28;20659;-68
2021/11/10 00:37:43;;;;;;;14.73;9.77;;;2.90;99.90;;;;;;5011658;28;20229;-68
2021/11/10 00:40:11;;;;;;;12.27;8.30;;;2.90;99.90;;;;;;5011821;28;20207;-68
2021/11/10 00:42:37;;;;;;;11.43;8.45;;;2.90;99.90;;;;;;5011998;28;20202;-68
2021/11/10 00:45:05;;;;;;;12.85;8.43;;;2.90;99.90;;;;;;5011645;28;20209;-68
2021/11/10 00:47:31;;;;;;;11.65;8.77;;;2.90;99.90;;;;;;5011314;28;20214;-68
2021/11/10 00:49:58;;;;;;;15.60;10.50;;;2.90;99.90;;;;;;5011731;28;20213;-68
2021/11/10 00:52:26;;;;;;;12.48;9.27;;;2.90;99.90;;;;;;5011893;28;20214;-68
2021/11/10 00:54:54;;;;;;;11.38;8.15;;;2.90;99.90;;;;;;5011487;28;20205;-68
2021/11/10 00:57:21;;;;;;;12.63;8.20;;;2.90;99.90;;;;;;5011271;28;20238;-68
2021/11/10 00:59:47;;;;;;;11.88;8.50;;;2.90;99.90;;;;;;5011502;28;20245;-68
2021/11/10 01:02:14;;;;;;;11.85;8.05;;;2.80;99.90;;;;;;5011709;28;20649;-68
2021/11/10 01:04:41;;;;;;;12.43;8.75;;;2.70;99.90;;;;;;5011600;28;20586;-68
2021/11/10 01:07:08;;;;;;;10.45;8.75;;;2.60;99.90;;;;;;5010975;28;20708;-68
2021/11/10 01:09:40;;;;;;;15.25;8.95;;;2.60;99.90;;;;;;5011645;28;20203;-68
2021/11/10 01:12:09;;;;;;;13.43;9.65;;;2.50;99.90;;;;;;5011450;28;20313;-68
2021/11/10 01:14:37;;;;;;;14.20;9.48;;;2.60;99.90;;;;;;5011571;28;20211;-68
2021/11/10 01:17:04;;;;;;;10.05;8.38;;;2.60;99.90;;;;;;5010674;28;20233;-68
2021/11/10 01:19:32;;;;;;;10.93;8.02;;;2.60;99.90;;;;;;5011426;28;20298;-68
2021/11/10 01:21:59;;;;;;;13.25;9.25;;;2.50;99.90;;;;;;5011215;28;20209;-68
2021/11/10 01:24:25;;;;;;;14.18;9.30;;;2.40;99.90;;;;;;5011846;28;20198;-68
2021/11/10 01:26:52;;;;;;;14.98;8.68;;;2.40;99.90;;;;;;5010672;28;20226;-68
2021/11/10 01:29:20;;;;;;;13.15;9.43;;;2.40;99.90;;;;;;5011348;28;20210;-68
2021/11/10 01:31:47;;;;;;;10.82;9.32;;;2.40;99.90;;;;;;5011323;28;20673;-68
2021/11/10 01:34:14;;;;;;;12.95;8.38;;;2.40;99.90;;;;;;5010758;28;20578;-68
2021/11/10 01:36:41;;;;;;;12.30;9.20;;;2.40;99.90;;;;;;5010782;28;20592;-68
2021/11/10 01:39:09;;;;;;;14.98;10.48;;;2.40;99.90;;;;;;5010792;28;20214;-68
2021/11/10 01:41:40;;;;;;;13.65;8.88;;;2.30;99.90;;;;;;5011132;28;20198;-68
2021/11/10 01:44:14;;;;;;;10.68;8.25;;;2.30;99.90;;;;;;5010897;28;20734;-68
2021/11/10 01:46:42;;;;;;;13.05;8.15;;;2.30;99.90;;;;;;5010498;28;20226;-68
2021/11/10 01:49:09;;;;;;;12.27;9.13;;;2.20;99.90;;;;;;5010884;28;20205;-68
2021/11/10 01:51:41;;;;;;;10.27;8.13;;;2.20;99.90;;;;;;5010999;28;20595;-68
2021/11/10 01:54:07;;;;;;;13.13;8.68;;;2.20;99.90;;;;;;5010688;28;20206;-68
2021/11/10 01:56:34;;;;;;;11.80;8.52;;;2.20;99.90;;;;;;5010576;28;20226;-68
2021/11/10 01:59:01;;;;;;;11.35;9.23;;;2.10;99.90;;;;;;5010644;28;20218;-68
2021/11/10 02:01:28;;;;;;;12.48;9.73;;;2.10;99.90;;;;;;5010983;28;20207;-68
2021/11/10 02:03:56;;;;;;;12.95;9.52;;;2.00;99.90;;;;;;5010508;28;20697;-68
2021/11/10 02:06:23;;;;;;;10.05;7.53;;;1.90;99.90;;;;;;5010698;28;20628;-68
2021/11/10 02:08:50;;;;;;;14.00;9.27;;;1.90;99.90;;;;;;5010552;28;20199;-68
2021/11/10 02:11:17;;;;;;;12.88;10.10;;;1.80;99.90;;;;;;5010966;28;20204;-68
2021/11/10 02:13:44;;;;;;;10.93;8.82;;;1.70;99.90;;;;;;5010670;28;20213;-68
2021/11/10 02:16:11;;;;;;;11.00;8.18;;;1.70;99.90;;;;;;5010323;28;20258;-68
2021/11/10 02:18:39;;;;;;;12.35;9.30;;;1.70;99.90;;;;;;5010774;28;20222;-68
2021/11/10 02:21:09;;;;;;;10.75;9.13;;;1.70;99.90;;;;;;5010797;28;20253;-68
2021/11/10 02:23:36;;;;;;;12.55;8.98;;;1.70;99.90;;;;;;5010525;28;20198;-68
2021/11/10 02:26:05;;;;;;;16.55;8.73;;;1.60;99.90;;;;;;5009913;28;20226;-68
2021/11/10 02:28:33;;;;;;;13.18;8.80;;;1.60;99.90;;;;;;5010701;28;20198;-68
2021/11/10 02:31:00;;;;;;;12.88;9.02;;;1.60;99.90;;;;;;5010701;28;20305;-68
2021/11/10 02:33:29;;;;;;;13.77;9.80;;;1.60;99.90;;;;;;5010640;28;20249;-68
2021/11/10 02:36:00;;;;;;;14.82;9.70;;;1.50;99.90;;;;;;5010311;28;20222;-68
2021/11/10 02:38:28;;;;;;;17.33;11.45;;;1.50;99.90;;;;;;5010489;28;20222;-67
2021/11/10 02:40:58;;;;;;;12.48;7.65;;;1.50;99.90;;;;;;5010345;28;20210;-68
2021/11/10 02:43:25;;;;;;;9.95;7.97;;;1.50;99.90;;;;;;5010633;28;20605;-68
2021/11/10 02:45:52;;;;;;;14.55;9.50;;;1.40;99.90;;;;;;5011553;28;20605;-68
2021/11/10 02:48:19;;;;;;;12.20;8.70;;;1.40;99.90;;;;;;5014236;28;20206;-68
2021/11/10 02:50:46;;;;;;;11.10;9.10;;;1.30;99.90;;;;;;5013799;28;20202;-68
2021/11/10 02:53:13;;;;;;;11.93;8.88;;;1.30;99.90;;;;;;5013914;28;20214;-68
2021/11/10 02:55:41;;;;;;;11.80;8.50;;;1.30;99.90;;;;;;5013764;28;20213;-68
2021/11/10 02:58:09;;;;;;;13.05;9.32;;;1.30;99.90;;;;;;5013633;28;20247;-68
2021/11/10 03:00:37;;;;;;;13.23;9.50;;;1.30;99.90;;;;;;5013948;28;20217;-68
2021/11/10 03:03:04;;;;;;;12.80;9.13;;;1.20;99.90;;;;;;5013734;28;20210;-68
2021/11/10 03:05:31;;;;;;;13.77;8.88;;;1.20;99.90;;;;;;5013972;28;20276;-68
2021/11/10 03:07:59;;;;;;;9.75;7.95;;;1.20;99.90;;;;;;5013038;28;20218;-68
2021/11/10 03:10:25;;;;;;;11.63;8.93;;;1.10;99.90;;;;;;5014197;28;20203;-68
2021/11/10 03:12:54;;;;;;;14.35;10.07;;;1.10;99.90;;;;;;5013562;28;20217;-68
2021/11/10 03:15:20;;;;;;;16.63;9.00;;;1.10;99.90;;;;;;5013599;28;20213;-68
2021/11/10 03:17:47;;;;;;;11.35;8.68;;;1.10;99.90;;;;;;5012958;28;20226;-68
2021/11/10 03:20:14;;;;;;;9.00;7.93;;;1.10;99.90;;;;;;5013497;28;20298;-68
2021/11/10 03:22:41;;;;;;;13.02;9.02;;;1.10;99.90;;;;;;5012950;28;20238;-67
2021/11/10 03:25:08;;;;;;;12.93;9.55;;;1.10;99.90;;;;;;5013296;28;20217;-67
2021/11/10 03:27:35;;;;;;;11.30;8.73;;;1.10;99.90;;;;;;5013324;28;20226;-67
2021/11/10 03:30:05;;;;;;;14.25;9.05;;;1.10;99.90;;;;;;5013374;28;20709;-68
2021/11/10 03:32:32;;;;;;;12.70;9.40;;;1.10;99.90;;;;;;5013633;28;20202;-67
2021/11/10 03:34:58;;;;;;;11.15;9.25;;;1.10;99.90;;;;;;5013304;28;20202;-67
2021/11/10 03:37:25;;;;;;;12.82;9.13;;;1.10;99.90;;;;;;5012706;28;20226;-67
2021/11/10 03:39:52;;;;;;;11.60;8.35;;;1.10;99.90;;;;;;5013278;28;20215;-68
2021/11/10 03:42:19;;;;;;;11.07;8.65;;;1.10;99.90;;;;;;5013311;28;20250;-68
2021/11/10 03:44:45;;;;;;;14.80;8.98;;;1.10;99.90;;;;;;5013105;28;20696;-67
2021/11/10 03:47:14;;;;;;;12.95;8.65;;;1.10;99.90;;;;;;5012454;28;20748;-67
2021/11/10 03:49:40;;;;;;;12.35;8.23;;;1.10;99.90;;;;;;5013251;28;20673;-67
2021/11/10 03:52:07;;;;;;;11.82;9.55;;;1.10;99.90;;;;;;5013394;28;20588;-67
2021/11/10 03:54:34;;;;;;;11.60;8.73;;;1.10;99.90;;;;;;5013161;28;20206;-67
2021/11/10 03:57:01;;;;;;;15.23;9.95;;;1.10;99.90;;;;;;5012057;28;20230;-67
2021/11/10 03:59:27;;;;;;;13.57;9.88;;;1.10;99.90;;;;;;5012793;28;20222;-67
2021/11/10 04:01:54;;;;;;;12.23;9.27;;;1.10;99.90;;;;;;5012961;28;20206;-67
2021/11/10 04:04:22;;;;;;;14.52;10.00;;;1.10;99.90;;;;;;5012564;28;20211;-67
2021/11/10 04:06:49;;;;;;;15.77;8.98;;;1.10;99.90;;;;;;5012299;28;20226;-69
2021/11/10 04:09:16;;;;;;;12.70;9.18;;;1.10;99.90;;;;;;5012429;28;20203;-68
2021/11/10 04:11:43;;;;;;;13.38;8.68;;;1.10;99.90;;;;;;5012901;28;20483;-69
2021/11/10 04:14:10;;;;;;;13.43;9.27;;;1.10;99.90;;;;;;5012535;28;20690;-68
2021/11/10 04:16:37;;;;;;;11.93;8.95;;;1.00;99.90;;;;;;5012043;28;20740;-69
2021/11/10 04:19:04;;;;;;;15.63;10.70;;;1.00;99.90;;;;;;5012253;28;20226;-69
2021/11/10 04:21:32;;;;;;;14.98;8.38;;;1.00;99.90;;;;;;5012533;28;20202;-68
2021/11/10 04:24:00;;;;;;;10.57;8.38;;;1.00;99.90;;;;;;5012453;28;20672;-68
2021/11/10 04:26:29;;;;;;;13.60;8.82;;;1.00;99.90;;;;;;5011538;28;20229;-68
2021/11/10 04:28:56;;;;;;;14.43;9.70;;;0.90;99.90;;;;;;5012200;28;20205;-68
2021/11/10 04:31:23;;;;;;;10.60;8.55;;;0.90;99.90;;;;;;5012039;28;20211;-68
2021/11/10 04:33:51;;;;;;;12.82;9.20;;;0.90;99.90;;;;;;5012373;28;20195;-68
2021/11/10 04:36:19;;;;;;;13.93;10.13;;;0.80;99.90;;;;;;5019606;28;20225;-68
2021/11/10 04:38:47;;;;;;;13.20;10.20;;;0.80;99.90;;;;;;5021926;28;20275;-68
2021/11/10 04:41:15;;;;;;;12.70;9.15;;;0.80;99.90;;;;;;5022320;28;20210;-68
2021/11/10 04:43:42;;;;;;;14.55;8.50;;;0.80;99.90;;;;;;5020393;28;20194;-68
2021/11/10 04:46:13;;;;;;;14.75;9.05;;;0.80;99.90;;;;;;5018816;28;20575;-68
2021/11/10 04:48:40;;;;;;;12.43;8.75;;;0.80;99.90;;;;;;5020278;28;20267;-68
2021/11/10 04:51:09;;;;;;;12.05;8.93;;;0.80;99.90;;;;;;5021006;28;20259;-68
2021/11/10 04:53:37;;;;;;;13.20;9.02;;;0.80;99.90;;;;;;5019993;28;20199;-68
2021/11/10 04:56:06;;;;;;;12.57;8.63;;;0.80;99.90;;;;;;5024273;28;20499;-68
2021/11/10 04:58:35;;;;;;;12.90;10.18;;;0.80;99.90;;;;;;5018287;28;20269;-68
2021/11/10 05:01:02;;;;;;;13.82;10.13;;;0.90;99.90;;;;;;5013658;28;20649;-68
2021/11/10 05:03:29;;;;;;;15.50;9.82;;;0.90;99.90;;;;;;5016616;28;20194;-68
2021/11/10 05:05:56;;;;;;;11.48;8.35;;;0.90;99.90;;;;;;5019293;28;20225;-68
2021/11/10 05:08:23;;;;;;;16.30;9.40;;;0.90;99.90;;;;;;5019838;28;20198;-68
2021/11/10 05:10:49;;;;;;;12.57;9.68;;;0.90;99.90;;;;;;5016498;28;20568;-68
2021/11/10 05:13:18;;;;;;;14.30;9.38;;;0.90;99.90;;;;;;5022489;28;20549;-69
2021/11/10 05:15:45;;;;;;;11.02;8.30;;;0.90;99.90;;;;;;5018146;28;20199;-68
2021/11/10 05:18:12;;;;;;;18.08;8.98;;;0.90;99.90;;;;;;5019428;28;20205;-68
2021/11/10 05:20:38;;;;;;;12.43;9.65;;;0.90;99.90;;;;;;5020320;28;20195;-69
2021/11/10 05:23:05;;;;;;;12.18;9.82;;;0.90;99.90;;;;;;5018607;28;20592;-68
2021/11/10 05:25:32;;;;;;;13.35;9.93;;;0.80;99.90;;;;;;5013478;28;20214;-68
2021/11/10 05:28:00;;;;;;;13.23;8.95;;;0.80;99.90;;;;;;5012413;28;20696;-68
2021/11/10 05:30:28;;;;;;;12.18;8.90;;;0.80;99.90;;;;;;5011010;28;20199;-68
2021/11/10 05:32:55;;;;;;;13.90;8.23;;;0.80;99.90;;;;;;5010665;28;20210;-68
2021/11/10 05:35:22;;;;;;;14.13;8.73;;;0.80;99.90;;;;;;5010375;28;20213;-68
2021/11/10 05:37:48;;;;;;;16.25;8.80;;;0.80;99.90;;;;;;5009794;28;20226;-68
2021/11/10 05:40:15;;;;;;;12.40;8.93;;;0.70;99.90;;;;;;5010140;28;20232;-68
2021/11/10 05:42:42;;;;;;;14.15;9.32;;;0.80;99.90;;;;;;5010384;28;20202;-68
2021/11/10 05:45:10;;;;;;;11.20;9.52;;;0.90;99.90;;;;;;5010137;28;20583;-68
2021/11/10 05:47:38;;;;;;;10.18;7.97;;;0.90;99.90;;;;;;5010043;28;20599;-68
2021/11/10 05:50:07;;;;;;;11.82;9.10;;;0.80;99.90;;;;;;5010508;28;20688;-68
2021/11/10 05:52:35;;;;;;;11.60;9.70;;;0.80;99.90;;;;;;5056372;22;20236;-93
2021/11/10 05:55:03;;;;;;;11.27;8.52;;;0.80;99.90;;;;;;5039479;28;20585;-92
2021/11/10 05:57:31;;;;;;;12.40;8.20;;;0.70;99.90;;;;;;5056221;28;20326;-93
2021/11/10 05:59:58;;;;;;;12.35;8.98;;;0.80;99.90;;;;;;5057069;28;20231;-95
2021/11/10 06:02:25;;;;;;;15.77;9.90;;;0.80;99.90;;;;;;5056391;28;20320;-94
2021/11/10 06:04:54;;;;;;;11.93;9.07;;;0.80;99.90;;;;;;5056336;28;20205;-93
2021/11/10 06:07:22;;;;;;;11.98;9.32;;;0.70;99.90;;;;;;5055371;28;20205;-94
2021/11/10 06:09:49;;;;;;;12.98;8.40;;;0.70;99.90;;;;;;5056465;28;20203;-94
2021/11/10 06:12:16;;;;;;;14.13;9.60;;;0.80;99.90;;;;;;5057217;28;20249;-93
2021/11/10 06:14:43;;;;;;;12.00;8.70;;;0.70;99.90;;;;;;5056775;28;20291;-93
2021/11/10 06:17:10;;;;;;;11.20;8.60;;;0.70;99.90;;;;;;5056512;28;20198;-93
2021/11/10 06:19:37;;;;;;;10.55;8.65;;;0.80;99.90;;;;;;5058228;28;20229;-93
2021/11/10 06:22:06;;;;;;;12.43;9.40;;;0.80;99.90;;;;;;5061773;28;20308;-91
2021/11/10 06:24:33;;;;;;;11.35;9.35;;;0.70;99.90;;;;;;5061220;28;20232;-92
2021/11/10 06:27:00;;;;;;;10.40;8.00;;;0.70;99.90;;;;;;5061000;28;20292;-90
2021/11/10 06:29:27;;;;;;;17.75;9.32;;;0.70;99.90;;;;;;5060113;28;20193;-92
2021/11/10 06:31:54;;;;;;;11.88;8.80;;;0.70;99.90;;;;;;5061039;28;20256;-92
2021/11/10 06:34:21;;;;;;;14.43;9.70;;;0.70;99.90;;;;;;5061414;28;20197;-92
2021/11/10 06:36:48;;;;;;;13.30;9.68;;;0.70;99.90;;;;;;5060041;28;20209;-94
2021/11/10 06:39:16;;;;;;;12.50;9.75;;;0.70;99.90;;;;;;5061357;28;20229;-93
2021/11/10 06:41:44;;;;;;;13.25;9.93;;;0.70;99.90;;;;;;5062291;28;20233;-93
2021/11/10 06:44:11;;;;;;;11.88;8.65;;;0.70;99.90;;;;;;5061727;28;20209;-92
2021/11/10 06:46:38;;;;;;;16.38;10.50;;;0.70;99.90;;;;;;5061187;28;20682;-92
2021/11/10 06:49:05;;;;;;;12.32;9.90;;;0.70;99.90;;;;;;5064626;28;20209;-92
2021/11/10 06:51:32;;;;;;;15.65;9.88;;;0.80;99.90;;;;;;5069723;28;20300;-92
2021/11/10 06:53:59;;;;;;;19.92;10.75;;;0.80;99.90;;;;;;5061728;28;20212;-92
2021/11/10 06:56:27;;;;;;;13.27;9.27;;;0.80;99.90;;;;;;5063976;28;20213;-93
2021/11/10 06:58:54;;;;;;;20.08;10.52;;;0.80;99.90;;;;;;5043544;28;20222;-93
2021/11/10 07:01:22;;;;;;;16.48;9.70;;;0.90;99.90;;;;;;5043070;28;20202;-93
2021/11/10 07:03:49;;;;;;;13.68;9.00;;;0.90;99.90;;;;;;5051273;28;20211;-91
2021/11/10 07:06:16;;;;;;;11.40;9.40;;;0.90;99.90;;;;;;5063723;28;20640;-93
2021/11/10 07:08:43;;;;;;;10.65;8.57;;;0.90;99.90;;;;;;5064540;28;20646;-93
2021/11/10 07:11:17;;;;;;;14.45;9.43;;;1.00;99.90;;;;;;5063451;28;20201;-94
2021/11/10 07:13:46;;;;;;;14.90;9.52;;;1.00;99.90;;;;;;5044525;28;20881;-94
2021/11/10 07:16:15;;;;;;;12.70;9.48;;;1.10;99.90;;;;;;5043673;28;20202;-94
2021/11/10 07:18:45;;;;;;;11.13;8.05;;;1.10;99.90;;;;;;5043740;28;20204;-94
2021/11/10 07:21:12;;;;;;;10.75;8.80;;;1.20;99.90;;;;;;5047044;28;20198;-93
2021/11/10 07:23:39;;;;;;;12.77;8.77;;;1.30;99.90;;;;;;5037986;28;20681;-93
2021/11/10 07:26:07;;;;;;;11.07;8.52;;;1.30;99.90;;;;;;5040215;28;20220;-93
2021/11/10 07:28:34;;;;;;;11.15;8.85;;;1.40;99.90;;;;;;5042699;28;20198;-95
2021/11/10 07:31:02;;;;;;;11.23;9.15;;;1.40;99.90;;;;;;5045195;28;20257;-94
2021/11/10 07:33:29;;;;;;;11.50;8.77;;;1.60;99.90;;;;;;5045829;28;20205;-94
2021/11/10 07:35:56;;;;;;;10.45;7.97;;;1.90;99.90;;;;;;5044928;28;20210;-93
2021/11/10 07:38:25;;;;;;;9.88;7.90;;;2.30;99.90;;;;;;5056085;28;20196;-93
2021/11/10 07:40:53;;;;;;;12.27;7.80;;;2.60;99.90;;;;;;5059063;28;20284;-93
2021/11/10 07:43:22;;;;;;;11.05;8.32;;;2.90;99.90;;;;;;5045368;28;20226;-94
2021/11/10 07:45:53;;;;;;;9.98;8.07;;;3.00;99.90;;;;;;5047262;28;20244;-94
2021/11/10 07:48:22;;;;;;;15.25;9.13;;;3.10;99.90;;;;;;5046822;28;20297;-94
2021/11/10 07:50:49;;;;;;;10.18;7.82;;;3.00;99.90;;;;;;5046500;28;20201;-92
2021/11/10 07:53:16;;;;;;;13.50;8.75;;;3.00;99.90;;;;;;5046948;28;20233;-94
2021/11/10 07:55:43;;;;;;;13.93;9.23;;;3.00;99.90;;;;;;5047901;28;20198;-94
2021/11/10 07:58:10;;;;;;;14.05;9.45;;;3.00;99.90;;;;;;5047717;28;20205;-93
2021/11/10 08:00:38;;;;;;;16.80;10.40;;;3.00;99.90;;;;;;5045062;28;20225;-94
2021/11/10 08:03:05;;;;;;;16.38;9.95;;;3.10;99.90;;;;;;5045287;28;20222;-93
2021/11/10 08:05:33;;;;;;;10.85;8.70;;;3.10;99.90;;;;;;5045764;28;20202;-93
2021/11/10 08:08:00;;;;;;;11.95;9.18;;;3.10;99.90;;;;;;5046146;28;20216;-94
2021/11/10 08:10:28;;;;;;;11.70;8.77;;;3.20;99.90;;;;;;5055074;28;20454;-94
2021/11/10 08:12:54;;;;;;;16.75;9.85;;;3.30;99.90;;;;;;5045414;28;20218;-93
2021/11/10 08:15:21;;;;;;;10.40;8.60;;;3.60;99.90;;;;;;5045358;28;20233;-93
2021/11/10 08:17:48;;;;;;;12.70;9.30;;;4.00;99.90;;;;;;5046568;28;20198;-94
2021/11/10 08:20:17;;;;;;;12.35;9.65;;;4.30;99.90;;;;;;5047774;28;20229;-94
2021/11/10 08:22:48;;;;;;;9.98;7.75;;;4.50;99.90;;;;;;5047703;28;20277;-95
2021/11/10 08:25:16;;;;;;;14.07;9.50;;;4.70;99.90;;;;;;5046964;28;20198;-94
2021/11/10 08:27:44;;;;;;;18.05;11.75;;;4.70;99.90;;;;;;5046668;28;20294;-93
2021/11/10 08:30:14;;;;;;;15.50;11.65;;;4.70;99.90;;;;;;5046691;28;20204;-94
2021/11/10 08:32:41;;;;;;;13.15;10.40;;;4.70;99.90;;;;;;5046091;28;20209;-94
2021/11/10 08:35:09;;;;;;;12.88;10.25;;;4.70;99.90;;;;;;5047866;28;20213;-95
2021/11/10 08:37:36;;;;;;;17.33;12.20;;;4.60;99.90;;;;;;5047009;28;20190;-94
2021/11/10 08:40:05;;;;;;;16.95;10.38;;;4.70;99.90;;;;;;5048631;28;20218;-94
2021/11/10 08:42:41;;;;;;;14.55;10.57;;;4.90;99.90;;;;;;5049720;28;20221;-94
2021/11/10 08:45:10;;;;;;;11.02;9.52;;;5.10;99.90;;;;;;5050636;28;20296;-95
2021/11/10 08:47:38;;;;;;;11.70;8.65;;;5.30;99.90;;;;;;5048818;28;20323;-94
2021/11/10 08:50:07;;;;;;;10.52;8.60;;;5.50;99.90;;;;;;5047606;28;20194;-94
2021/11/10 08:52:35;;;;;;;12.93;10.25;;;5.70;99.90;;;;;;5046881;28;20312;-94
2021/11/10 08:55:04;;;;;;;13.82;11.00;;;5.80;99.90;;;;;;5046845;28;20201;-94
2021/11/10 08:57:31;;;;;;;14.63;12.00;;;5.70;99.90;;;;;;5047620;28;20217;-94
2021/11/10 08:59:58;;;;;;;15.40;11.80;;;5.60;99.90;;;;;;5049812;28;20240;-96
2021/11/10 09:02:25;;;;;;;17.42;11.85;;;5.60;99.90;;;;;;5049954;28;20233;-95
2021/11/10 09:04:51;;;;;;;17.30;12.07;;;5.40;99.90;;;;;;5049999;28;20225;-95
2021/11/10 09:07:18;;;;;;;13.88;11.35;;;5.30;99.90;;;;;;5049528;28;20216;-94
2021/11/10 09:09:45;;;;;;;16.40;11.68;;;5.30;99.90;;;;;;5051905;28;20196;-93
2021/11/10 09:12:13;;;;;;;18.42;12.27;;;5.20;99.90;;;;;;5051145;28;20220;-94
2021/11/10 09:14:40;;;;;;;14.38;11.73;;;5.20;99.90;;;;;;5049639;28;20220;-94
2021/11/10 09:17:07;;;;;;;16.38;12.00;;;5.10;99.90;;;;;;5050069;28;20219;-93
2021/11/10 09:19:34;;;;;;;20.67;12.35;;;5.20;99.90;;;;;;5049144;28;20209;-92
2021/11/10 09:22:01;;;;;;;14.20;11.55;;;5.30;99.90;;;;;;5051895;28;20221;-94
2021/11/10 09:24:28;;;;;;;18.52;12.68;;;5.30;99.90;;;;;;5053140;28;20185;-94
2021/11/10 09:26:54;;;;;;;14.10;11.18;;;5.50;99.90;;;;;;5055590;28;20185;-95
2021/11/10 09:29:23;;;;;;;14.75;11.23;;;5.70;99.90;;;;;;5052968;28;20206;-92
2021/11/10 09:31:50;;;;;;;15.73;11.23;;;5.90;99.90;;;;;;5050367;28;20228;-92
2021/11/10 09:34:16;;;;;;;15.50;11.05;;;6.10;99.90;;;;;;5051383;28;20212;-94
2021/11/10 09:36:47;;;;;;;16.88;12.48;;;6.10;99.90;;;;;;5051799;28;20201;-93
2021/11/10 09:39:16;;;;;;;17.48;11.02;;;6.20;99.90;;;;;;5050084;28;20489;-94
2021/11/10 09:41:43;;;;;;;15.45;12.13;;;6.20;99.90;;;;;;5048742;28;20227;-94
2021/11/10 09:44:10;;;;;;;15.20;11.57;;;6.30;99.90;;;;;;5048603;28;20212;-95
2021/11/10 09:46:40;;;;;;;14.98;11.40;;;6.30;99.90;;;;;;5052977;28;20182;-95
2021/11/10 09:49:07;;;;;;;15.10;11.65;;;6.40;99.90;;;;;;5054313;28;20194;-94
2021/11/10 09:51:35;;;;;;;15.55;10.68;;;6.40;99.90;;;;;;5047886;28;20231;-93
2021/11/10 09:54:03;;;;;;;15.85;11.50;;;6.50;99.90;;;;;;5049169;28;20670;-92
2021/11/10 09:56:31;;;;;;;18.95;11.20;;;6.50;99.90;;;;;;5052369;28;20292;-94
2021/11/10 09:58:58;;;;;;;12.25;10.38;;;6.60;99.90;;;;;;5051307;28;20292;-94
2021/11/10 10:01:26;;;;;;;13.50;10.52;;;6.60;99.90;;;;;;5050660;28;20248;-94
2021/11/10 10:03:55;;;;;;;14.60;11.73;;;6.60;99.90;;;;;;5051393;28;20201;-94
2021/11/10 10:06:23;;;;;;;13.40;10.68;;;6.60;99.90;;;;;;5051074;28;20265;-94
2021/11/10 10:08:50;;;;;;;12.10;10.80;;;6.50;99.90;;;;;;5050958;28;20206;-93
2021/11/10 10:11:17;;;;;;;15.23;10.40;;;6.50;99.90;;;;;;5049593;28;20228;-93
2021/11/10 10:13:44;;;;;;;15.55;12.45;;;6.50;99.90;;;;;;5051270;28;20205;-93
2021/11/10 10:16:11;;;;;;;14.38;11.13;;;6.50;99.90;;;;;;5052319;28;20206;-93
2021/11/10 10:18:40;;;;;;;15.00;12.27;;;6.50;99.90;;;;;;5053600;28;20568;-93
2021/11/10 10:21:11;;;;;;;14.63;11.68;;;6.50;99.90;;;;;;5061081;28;20206;-94
2021/11/10 10:23:40;;;;;;;16.80;11.60;;;6.50;99.90;;;;;;5051798;28;20209;-94
2021/11/10 10:26:11;;;;;;;15.80;11.50;;;6.60;99.90;;;;;;5050800;28;20228;-94
2021/11/10 10:28:40;;;;;;;13.00;9.65;;;6.60;99.90;;;;;;5050266;28;20205;-94
2021/11/10 10:31:09;;;;;;;17.00;11.38;;;6.60;99.90;;;;;;5050785;28;20208;-94
2021/11/10 10:33:38;;;;;;;12.95;10.75;;;6.70;99.90;;;;;;5051175;28;20209;-93
2021/11/10 10:36:09;;;;;;;12.35;10.48;;;6.80;99.90;;;;;;5050796;28;20216;-92
2021/11/10 10:38:41;;;;;;;13.50;10.07;;;6.80;99.90;;;;;;5052755;28;20213;-94
2021/11/10 10:41:09;;;;;;;13.88;9.93;;;6.90;99.90;;;;;;5048188;28;20245;-92
2021/11/10 10:43:44;;;;;;;15.77;11.07;;;7.00;99.90;;;;;;5051810;28;20213;-92
2021/11/10 10:46:11;;;;;;;17.02;11.05;;;7.10;99.90;;;;;;5051620;28;20215;-93
2021/11/10 10:48:39;;;;;;;13.23;10.15;;;7.30;99.90;;;;;;5055818;28;20200;-94
2021/11/10 10:51:08;;;;;;;16.90;9.93;;;7.50;99.90;;;;;;5054929;28;20212;-93
2021/11/10 10:54:00;;;;;;;15.30;11.60;;;7.70;99.90;;;;;;5057369;28;20213;-93
2021/11/10 10:56:28;;;;;;;12.93;10.73;;;7.90;99.90;;;;;;5057157;28;20205;-92
2021/11/10 10:59:04;;;;;;;10.32;9.23;;;8.10;99.90;;;;;;5055689;28;20212;-94
2021/11/10 11:01:34;;;;;;;15.95;10.93;;;8.30;99.90;;;;;;5052769;28;20224;-93
2021/11/10 11:04:03;;;;;;;14.25;11.60;;;8.50;99.90;;;;;;5052745;28;20209;-94
2021/11/10 11:06:39;;;;;;;13.27;11.35;;;8.80;99.90;;;;;;5052533;28;20270;-94
2021/11/10 11:09:22;;;;;;;13.40;10.05;;;9.70;99.90;;;;;;5054591;28;20209;-94
2021/11/10 11:11:58;;;;;;;11.20;9.75;;;11.00;99.90;;;;;;5054693;28;20225;-93
2021/11/10 11:14:37;;;;;;;13.43;10.32;;;12.20;99.90;;;;;;5055112;28;20231;-94
2021/11/10 11:17:05;;;;;;;13.95;10.52;;;13.10;99.90;;;;;;5052765;28;20209;-94
2021/11/10 11:19:37;;;;;;;14.85;11.20;;;13.60;99.90;;;;;;5053731;28;20208;-92
2021/11/10 11:22:05;;;;;;;11.88;9.70;;;13.70;99.90;;;;;;5050770;28;20233;-92
2021/11/10 11:24:35;;;;;;;13.63;11.02;;;13.40;99.90;;;;;;5049271;28;20193;-93
2021/11/10 11:27:21;;;;;;;10.85;9.68;;;13.20;99.90;;;;;;5046321;28;20621;-93
2021/11/10 11:29:57;;;;;;;13.10;10.30;;;12.90;99.90;;;;;;5053443;28;20217;-92
2021/11/10 11:32:31;;;;;;;12.38;9.73;;;12.60;99.90;;;;;;5058222;28;20224;-93
2021/11/10 11:35:11;;;;;;;12.10;10.48;;;12.30;99.90;;;;;;5056231;28;20202;-93
2021/11/10 11:37:39;;;;;;;12.45;9.98;;;11.80;99.90;;;;;;5041554;28;20280;-93
2021/11/10 11:43:31;;;;;;;14.68;11.25;;;11.40;99.90;;;;;;5021838;23;20280;-71
2021/11/10 11:45:59;;;;;;;14.48;11.57;;;11.40;99.90;;;;;;5012344;28;20591;-71
2021/11/10 11:48:27;;;;;;;11.52;10.32;;;11.20;99.90;;;;;;5013068;28;20252;-71
2021/11/10 11:51:02;;;;;;;14.50;10.70;;;11.20;99.90;;;;;;5012781;28;20234;-71
2021/11/10 11:53:31;;;;;;;15.13;11.02;;;11.30;99.90;;;;;;5070008;23;20231;-66
2021/11/10 11:56:03;;;;;;;14.07;11.55;;;11.50;99.90;;;;;;5011861;28;20226;-66
2021/11/10 11:58:36;;;;;;;14.82;11.32;;;11.80;99.90;;;;;;5013108;28;20457;-66
2021/11/10 12:01:06;;;;;;;14.10;10.60;;;12.20;99.90;;;;;;5012385;28;20276;-67
2021/11/10 12:03:36;;;;;;;12.90;9.65;;;12.50;99.90;;;;;;5013209;28;20248;-66
2021/11/10 12:06:16;;;;;;;12.50;10.45;;;12.70;99.90;;;;;;5011658;28;20509;-66
2021/11/10 12:08:44;;;;;;;12.85;10.63;;;12.60;99.90;;;;;;5013302;28;20257;-67
2021/11/10 12:11:32;;;;;;;15.27;10.82;;;12.60;99.90;;;;;;5011946;28;20198;-66
2021/11/10 12:14:15;;;;;;;12.00;10.35;;;12.70;99.90;;;;;;5012250;28;20209;-67
2021/11/10 12:16:56;;;;;;;12.88;10.60;;;12.70;99.90;;;;;;5011406;28;20225;-67
2021/11/10 12:19:28;;;;;;;18.88;11.82;;;12.50;99.90;;;;;;5012273;28;20566;-66
2021/11/10 12:21:58;;;;;;;15.57;12.25;;;12.20;99.90;;;;;;5011633;28;20724;-66
2021/11/10 12:24:29;;;;;;;13.98;11.10;;;12.10;99.90;;;;;;5011812;28;20213;-66
2021/11/10 12:27:27;;;;;;;11.95;10.60;;;12.00;99.90;;;;;;5011112;28;20219;-67
2021/11/10 12:30:02;;;;;;;19.45;12.60;;;11.90;99.90;;;;;;5011859;28;20206;-69
2021/11/10 12:32:54;;;;;;;16.48;12.80;;;12.00;99.90;;;;;;5011901;28;20217;-68
2021/11/10 12:35:27;;;;;;;14.40;11.38;;;12.10;99.90;;;;;;5011918;28;20202;-68
2021/11/10 12:37:56;;;;;;;13.98;11.25;;;12.30;99.90;;;;;;5010995;28;20245;-68
2021/11/10 12:40:24;;;;;;;16.10;11.48;;;12.40;99.90;;;;;;5011673;28;20202;-68
2021/11/10 12:42:54;;;;;;;16.75;11.48;;;12.50;99.90;;;;;;4995118;28;20682;-68
2021/11/10 12:45:27;;;;;;;12.65;10.77;;;12.70;99.90;;;;;;4991884;28;20227;-68
2021/11/10 12:47:56;;;;;;;13.27;11.10;;;13.00;99.90;;;;;;4992354;28;20640;-67
2021/11/10 12:50:41;;;;;;;14.60;11.45;;;13.30;99.90;;;;;;4991955;28;20207;-67
2021/11/10 12:53:11;;;;;;;12.80;11.15;;;13.60;99.90;;;;;;4991984;28;20210;-67
2021/11/10 12:55:49;;;;;;;16.80;12.23;;;13.70;99.90;;;;;;4991635;28;20199;-67